sensor_id;sensor_type;location;lat;lon;timestamp;temperature;humidity
46231;DHT22;31949;51.404;-0.038;2022-12-07T00:01:16;5.80;99.90
46231;DHT22;31949;51.404;-0.038;2022-12-07T00:03:45;5.80;99.90
46231;DHT22;31949;51.404;-0.038;2022-12-07T00:06:14;5.80;99.90
46231;DHT22;31949;51.404;-0.038;2022-12-07T00:08:42;5.90;99.90
46231;DHT22;31949;51.404;-0.038;2022-12-07T00:11:18;5.90;99.90
46231;DHT22;31949;51.404;-0.038;2022-12-07T00:13:46;5.80;99.90
46231;DHT22;31949;51.404;-0.038;2022-12-07T00:16:15;5.80;99.90
46231;DHT22;31949;51.404;-0.038;2022-12-07T00:18:43;5.80;99.90
46231;DHT22;31949;51.404;-0.038;2022-12-07T00:21:16;5.80;99.90
46231;DHT22;31949;51.404;-0.038;2022-12-07T00:23:46;5.80;99.90
46231;DHT22;31949;51.404;-0.038;2022-12-07T00:26:22;5.70;99.90
46231;DHT22;31949;51.404;-0.038;2022-12-07T00:28:55;5.70;99.90
46231;DHT22;31949;51.404;-0.038;2022-12-07T00:31:26;5.70;99.90
46231;DHT22;31949;51.404;-0.038;2022-12-07T00:33:53;5.70;99.90
46231;DHT22;31949;51.404;-0.038;2022-12-07T00:36:23;5.70;99.90
46231;DHT22;31949;51.404;-0.038;2022-12-07T00:38:54;5.70;99.90
46231;DHT22;31949;51.404;-0.038;2022-12-07T00:41:23;5.70;99.90
46231;DHT22;31949;51.404;-0.038;2022-12-07T00:43:51;5.60;99.90
46231;DHT22;31949;51.404;-0.038;2022-12-07T00:46:19;5.60;99.90
46231;DHT22;31949;51.404;-0.038;2022-12-07T00:48:48;5.60;99.90
46231;DHT22;31949;51.404;-0.038;2022-12-07T00:51:17;5.60;99.90
46231;DHT22;31949;51.404;-0.038;2022-12-07T00:53:44;5.50;99.90
46231;DHT22;31949;51.404;-0.038;2022-12-07T00:56:14;5.40;99.90
46231;DHT22;31949;51.404;-0.038;2022-12-07T00:58:41;5.40;99.90
46231;DHT22;31949;51.404;-0.038;2022-12-07T01:01:10;5.40;99.90
46231;DHT22;31949;51.404;-0.038;2022-12-07T01:03:38;5.40;99.90
46231;DHT22;31949;51.404;-0.038;2022-12-07T01:06:05;5.30;99.90
46231;DHT22;31949;51.404;-0.038;2022-12-07T01:08:33;5.30;99.90
46231;DHT22;31949;51.404;-0.038;2022-12-07T01:11:02;5.20;99.90
46231;DHT22;31949;51.404;-0.038;2022-12-07T01:13:31;5.10;99.90
46231;DHT22;31949;51.404;-0.038;2022-12-07T01:16:00;5.00;99.90
46231;DHT22;31949;51.404;-0.038;2022-12-07T01:18:29;5.00;99.90
46231;DHT22;31949;51.404;-0.038;2022-12-07T01:21:06;5.00;99.90
46231;DHT22;31949;51.404;-0.038;2022-12-07T01:23:35;5.00;99.90
46231;DHT22;31949;51.404;-0.038;2022-12-07T01:26:06;4.90;99.90
46231;DHT22;31949;51.404;-0.038;2022-12-07T01:28:34;4.90;99.90
46231;DHT22;31949;51.404;-0.038;2022-12-07T01:31:13;4.90;99.90
46231;DHT22;31949;51.404;-0.038;2022-12-07T01:33:44;5.00;99.90
46231;DHT22;31949;51.404;-0.038;2022-12-07T01:36:16;5.00;99.90
46231;DHT22;31949;51.404;-0.038;2022-12-07T01:38:44;4.90;99.90
46231;DHT22;31949;51.404;-0.038;2022-12-07T01:41:12;4.90;99.90
46231;DHT22;31949;51.404;-0.038;2022-12-07T01:44:12;4.90;99.90
46231;DHT22;31949;51.404;-0.038;2022-12-07T01:46:41;4.90;99.90
46231;DHT22;31949;51.404;-0.038;2022-12-07T01:49:12;4.90;99.90
46231;DHT22;31949;51.404;-0.038;2022-12-07T01:51:42;4.90;99.90
46231;DHT22;31949;51.404;-0.038;2022-12-07T01:54:11;4.90;99.90
46231;DHT22;31949;51.404;-0.038;2022-12-07T01:56:41;4.90;99.90
46231;DHT22;31949;51.404;-0.038;2022-12-07T01:59:10;4.90;99.90
46231;DHT22;31949;51.404;-0.038;2022-12-07T02:01:38;4.80;99.90
46231;DHT22;31949;51.404;-0.038;2022-12-07T02:04:06;4.80;99.90
46231;DHT22;31949;51.404;-0.038;2022-12-07T02:06:33;4.80;99.90
46231;DHT22;31949;51.404;-0.038;2022-12-07T02:09:02;4.80;99.90
46231;DHT22;31949;51.404;-0.038;2022-12-07T02:11:30;4.80;99.90
46231;DHT22;31949;51.404;-0.038;2022-12-07T02:13:57;4.80;99.90
46231;DHT22;31949;51.404;-0.038;2022-12-07T02:16:28;4.80;99.90
46231;DHT22;31949;51.404;-0.038;2022-12-07T02:19:25;4.80;99.90
46231;DHT22;31949;51.404;-0.038;2022-12-07T02:28:18;4.80;99.90
46231;DHT22;31949;51.404;-0.038;2022-12-07T02:30:48;4.80;99.90
46231;DHT22;31949;51.404;-0.038;2022-12-07T02:33:48;4.80;99.90
46231;DHT22;31949;51.404;-0.038;2022-12-07T02:36:31;4.80;99.90
46231;DHT22;31949;51.404;-0.038;2022-12-07T02:39:28;4.80;99.90
46231;DHT22;31949;51.404;-0.038;2022-12-07T02:42:02;4.80;99.90
46231;DHT22;31949;51.404;-0.038;2022-12-07T02:44:34;4.80;99.90
46231;DHT22;31949;51.404;-0.038;2022-12-07T02:47:05;4.80;99.90
46231;DHT22;31949;51.404;-0.038;2022-12-07T02:49:36;4.80;99.90
46231;DHT22;31949;51.404;-0.038;2022-12-07T02:52:03;4.80;99.90
46231;DHT22;31949;51.404;-0.038;2022-12-07T02:54:31;4.90;99.90
46231;DHT22;31949;51.404;-0.038;2022-12-07T02:57:05;4.90;99.90
46231;DHT22;31949;51.404;-0.038;2022-12-07T03:11:05;4.90;99.90
46231;DHT22;31949;51.404;-0.038;2022-12-07T03:14:02;4.90;99.90
46231;DHT22;31949;51.404;-0.038;2022-12-07T03:16:41;4.90;99.90
46231;DHT22;31949;51.404;-0.038;2022-12-07T03:19:16;4.80;99.90
46231;DHT22;31949;51.404;-0.038;2022-12-07T03:22:03;4.80;99.90
46231;DHT22;31949;51.404;-0.038;2022-12-07T03:24:58;4.80;99.90
46231;DHT22;31949;51.404;-0.038;2022-12-07T03:30:04;4.80;99.90
46231;DHT22;31949;51.404;-0.038;2022-12-07T03:32:56;4.80;99.90
46231;DHT22;31949;51.404;-0.038;2022-12-07T03:35:35;4.80;99.90
46231;DHT22;31949;51.404;-0.038;2022-12-07T03:41:04;4.90;99.90
46231;DHT22;31949;51.404;-0.038;2022-12-07T03:43:33;4.90;99.90
46231;DHT22;31949;51.404;-0.038;2022-12-07T03:51:36;4.90;99.90
46231;DHT22;31949;51.404;-0.038;2022-12-07T03:56:41;4.90;99.90
46231;DHT22;31949;51.404;-0.038;2022-12-07T03:59:09;4.80;99.90
46231;DHT22;31949;51.404;-0.038;2022-12-07T04:01:38;4.80;99.90
46231;DHT22;31949;51.404;-0.038;2022-12-07T04:04:05;4.80;99.90
46231;DHT22;31949;51.404;-0.038;2022-12-07T04:06:32;4.90;99.90
46231;DHT22;31949;51.404;-0.038;2022-12-07T04:08:59;4.90;99.90
46231;DHT22;31949;51.404;-0.038;2022-12-07T04:11:26;4.90;99.90
46231;DHT22;31949;51.404;-0.038;2022-12-07T04:13:53;4.90;99.90
46231;DHT22;31949;51.404;-0.038;2022-12-07T04:16:39;4.90;99.90
46231;DHT22;31949;51.404;-0.038;2022-12-07T04:19:10;4.90;99.90
46231;DHT22;31949;51.404;-0.038;2022-12-07T04:21:38;4.90;99.90
46231;DHT22;31949;51.404;-0.038;2022-12-07T04:24:05;4.80;99.90
46231;DHT22;31949;51.404;-0.038;2022-12-07T04:26:32;4.80;99.90
46231;DHT22;31949;51.404;-0.038;2022-12-07T04:28:59;4.90;99.90
46231;DHT22;31949;51.404;-0.038;2022-12-07T04:31:33;4.90;99.90
46231;DHT22;31949;51.404;-0.038;2022-12-07T04:34:00;4.80;99.90
46231;DHT22;31949;51.404;-0.038;2022-12-07T04:36:28;4.80;99.90
46231;DHT22;31949;51.404;-0.038;2022-12-07T04:38:55;4.80;99.90
46231;DHT22;31949;51.404;-0.038;2022-12-07T04:41:24;4.80;99.90
46231;DHT22;31949;51.404;-0.038;2022-12-07T04:44:00;4.80;99.90
46231;DHT22;31949;51.404;-0.038;2022-12-07T04:46:29;4.80;99.90
46231;DHT22;31949;51.404;-0.038;2022-12-07T04:48:57;4.80;99.90
46231;DHT22;31949;51.404;-0.038;2022-12-07T04:51:26;4.80;99.90
46231;DHT22;31949;51.404;-0.038;2022-12-07T04:53:55;4.80;99.90
46231;DHT22;31949;51.404;-0.038;2022-12-07T04:56:24;4.80;99.90
46231;DHT22;31949;51.404;-0.038;2022-12-07T04:58:53;4.80;99.90
46231;DHT22;31949;51.404;-0.038;2022-12-07T05:01:21;4.70;99.90
46231;DHT22;31949;51.404;-0.038;2022-12-07T05:03:48;4.80;99.90
46231;DHT22;31949;51.404;-0.038;2022-12-07T05:06:16;4.70;99.90
46231;DHT22;31949;51.404;-0.038;2022-12-07T05:08:44;4.70;99.90
46231;DHT22;31949;51.404;-0.038;2022-12-07T05:11:12;4.60;99.90
46231;DHT22;31949;51.404;-0.038;2022-12-07T05:14:00;4.60;99.90
46231;DHT22;31949;51.404;-0.038;2022-12-07T05:16:28;4.60;99.90
46231;DHT22;31949;51.404;-0.038;2022-12-07T05:18:55;4.60;99.90
46231;DHT22;31949;51.404;-0.038;2022-12-07T05:21:22;4.60;99.90
46231;DHT22;31949;51.404;-0.038;2022-12-07T05:23:50;4.50;99.90
46231;DHT22;31949;51.404;-0.038;2022-12-07T05:26:17;4.60;99.90
46231;DHT22;31949;51.404;-0.038;2022-12-07T05:28:44;4.70;99.90
46231;DHT22;31949;51.404;-0.038;2022-12-07T05:31:11;4.60;99.90
46231;DHT22;31949;51.404;-0.038;2022-12-07T05:33:39;4.60;99.90
46231;DHT22;31949;51.404;-0.038;2022-12-07T05:36:06;4.70;99.90
46231;DHT22;31949;51.404;-0.038;2022-12-07T05:38:34;4.80;99.90
46231;DHT22;31949;51.404;-0.038;2022-12-07T05:41:06;4.70;99.90
46231;DHT22;31949;51.404;-0.038;2022-12-07T05:43:33;4.70;99.90
46231;DHT22;31949;51.404;-0.038;2022-12-07T05:46:00;4.80;99.90
46231;DHT22;31949;51.404;-0.038;2022-12-07T05:48:28;4.70;99.90
46231;DHT22;31949;51.404;-0.038;2022-12-07T05:50:55;4.70;99.90
46231;DHT22;31949;51.404;-0.038;2022-12-07T05:53:22;4.70;99.90
46231;DHT22;31949;51.404;-0.038;2022-12-07T05:55:49;4.60;99.90
46231;DHT22;31949;51.404;-0.038;2022-12-07T05:58:16;4.60;99.90
46231;DHT22;31949;51.404;-0.038;2022-12-07T06:01:02;4.70;99.90
46231;DHT22;31949;51.404;-0.038;2022-12-07T06:03:29;4.60;99.90
46231;DHT22;31949;51.404;-0.038;2022-12-07T06:05:57;4.70;99.90
46231;DHT22;31949;51.404;-0.038;2022-12-07T06:08:24;4.70;99.90
46231;DHT22;31949;51.404;-0.038;2022-12-07T06:10:51;4.70;99.90
46231;DHT22;31949;51.404;-0.038;2022-12-07T06:13:38;4.70;99.90
46231;DHT22;31949;51.404;-0.038;2022-12-07T06:16:12;4.70;99.90
46231;DHT22;31949;51.404;-0.038;2022-12-07T06:18:40;4.70;99.90
46231;DHT22;31949;51.404;-0.038;2022-12-07T06:21:07;4.60;99.90
46231;DHT22;31949;51.404;-0.038;2022-12-07T06:23:34;4.60;99.90
46231;DHT22;31949;51.404;-0.038;2022-12-07T06:26:01;4.70;99.90
46231;DHT22;31949;51.404;-0.038;2022-12-07T06:28:28;4.70;99.90
46231;DHT22;31949;51.404;-0.038;2022-12-07T06:31:00;4.70;99.90
46231;DHT22;31949;51.404;-0.038;2022-12-07T06:33:28;4.70;99.90
46231;DHT22;31949;51.404;-0.038;2022-12-07T06:35:55;4.70;99.90
46231;DHT22;31949;51.404;-0.038;2022-12-07T06:38:23;4.70;99.90
46231;DHT22;31949;51.404;-0.038;2022-12-07T06:40:50;4.60;99.90
46231;DHT22;31949;51.404;-0.038;2022-12-07T06:43:17;4.60;99.90
46231;DHT22;31949;51.404;-0.038;2022-12-07T06:45:44;4.70;99.90
46231;DHT22;31949;51.404;-0.038;2022-12-07T06:48:11;4.70;99.90
46231;DHT22;31949;51.404;-0.038;2022-12-07T06:50:39;4.80;99.90
46231;DHT22;31949;51.404;-0.038;2022-12-07T06:53:07;4.80;99.90
46231;DHT22;31949;51.404;-0.038;2022-12-07T06:55:34;4.80;99.90
46231;DHT22;31949;51.404;-0.038;2022-12-07T06:58:02;4.80;99.90
46231;DHT22;31949;51.404;-0.038;2022-12-07T07:00:29;4.80;99.90
46231;DHT22;31949;51.404;-0.038;2022-12-07T07:02:56;4.80;99.90
46231;DHT22;31949;51.404;-0.038;2022-12-07T07:05:24;4.80;99.90
46231;DHT22;31949;51.404;-0.038;2022-12-07T07:07:51;4.90;99.90
46231;DHT22;31949;51.404;-0.038;2022-12-07T07:10:39;4.90;99.90
46231;DHT22;31949;51.404;-0.038;2022-12-07T07:13:06;4.90;99.90
46231;DHT22;31949;51.404;-0.038;2022-12-07T07:15:34;4.90;99.90
46231;DHT22;31949;51.404;-0.038;2022-12-07T07:18:01;4.90;99.90
46231;DHT22;31949;51.404;-0.038;2022-12-07T07:20:34;4.90;99.90
46231;DHT22;31949;51.404;-0.038;2022-12-07T07:23:01;4.90;99.90
46231;DHT22;31949;51.404;-0.038;2022-12-07T07:25:29;4.90;99.90
46231;DHT22;31949;51.404;-0.038;2022-12-07T07:27:56;4.90;99.90
46231;DHT22;31949;51.404;-0.038;2022-12-07T07:30:23;4.90;99.90
46231;DHT22;31949;51.404;-0.038;2022-12-07T07:32:51;4.90;99.90
46231;DHT22;31949;51.404;-0.038;2022-12-07T07:35:18;4.90;99.90
46231;DHT22;31949;51.404;-0.038;2022-12-07T07:37:46;4.80;99.90
46231;DHT22;31949;51.404;-0.038;2022-12-07T07:40:13;4.90;99.90
46231;DHT22;31949;51.404;-0.038;2022-12-07T07:42:40;4.90;99.90
46231;DHT22;31949;51.404;-0.038;2022-12-07T07:45:08;4.90;99.90
46231;DHT22;31949;51.404;-0.038;2022-12-07T07:47:35;4.90;99.90
46231;DHT22;31949;51.404;-0.038;2022-12-07T07:50:03;4.90;99.90
46231;DHT22;31949;51.404;-0.038;2022-12-07T07:52:31;4.90;99.90
46231;DHT22;31949;51.404;-0.038;2022-12-07T07:54:58;4.90;99.90
46231;DHT22;31949;51.404;-0.038;2022-12-07T07:57:25;4.90;99.90
46231;DHT22;31949;51.404;-0.038;2022-12-07T07:59:53;4.90;99.90
46231;DHT22;31949;51.404;-0.038;2022-12-07T08:02:20;4.90;99.90
46231;DHT22;31949;51.404;-0.038;2022-12-07T08:04:47;4.90;99.90
46231;DHT22;31949;51.404;-0.038;2022-12-07T08:07:15;4.90;99.90
46231;DHT22;31949;51.404;-0.038;2022-12-07T08:09:42;4.90;99.90
46231;DHT22;31949;51.404;-0.038;2022-12-07T08:12:09;4.90;99.90
46231;DHT22;31949;51.404;-0.038;2022-12-07T08:14:37;4.90;99.90
46231;DHT22;31949;51.404;-0.038;2022-12-07T08:17:04;4.80;99.90
46231;DHT22;31949;51.404;-0.038;2022-12-07T08:19:31;4.80;99.90
46231;DHT22;31949;51.404;-0.038;2022-12-07T08:21:58;4.80;99.90
46231;DHT22;31949;51.404;-0.038;2022-12-07T08:24:26;4.90;99.90
46231;DHT22;31949;51.404;-0.038;2022-12-07T08:26:53;4.90;99.90
46231;DHT22;31949;51.404;-0.038;2022-12-07T08:29:20;4.90;99.90
46231;DHT22;31949;51.404;-0.038;2022-12-07T08:31:48;4.90;99.90
46231;DHT22;31949;51.404;-0.038;2022-12-07T08:34:15;4.90;99.90
46231;DHT22;31949;51.404;-0.038;2022-12-07T08:36:42;4.90;99.90
46231;DHT22;31949;51.404;-0.038;2022-12-07T08:39:09;4.90;99.90
46231;DHT22;31949;51.404;-0.038;2022-12-07T08:41:56;4.90;99.90
46231;DHT22;31949;51.404;-0.038;2022-12-07T08:44:24;4.90;99.90
46231;DHT22;31949;51.404;-0.038;2022-12-07T08:46:58;4.90;99.90
46231;DHT22;31949;51.404;-0.038;2022-12-07T08:49:33;4.90;99.90
46231;DHT22;31949;51.404;-0.038;2022-12-07T08:52:02;4.90;99.90
46231;DHT22;31949;51.404;-0.038;2022-12-07T08:54:32;4.90;99.90
46231;DHT22;31949;51.404;-0.038;2022-12-07T08:57:00;4.90;99.90
46231;DHT22;31949;51.404;-0.038;2022-12-07T08:59:28;4.90;99.90
46231;DHT22;31949;51.404;-0.038;2022-12-07T09:01:56;4.90;99.90
46231;DHT22;31949;51.404;-0.038;2022-12-07T09:04:23;4.90;99.90
46231;DHT22;31949;51.404;-0.038;2022-12-07T09:06:51;4.80;99.90
46231;DHT22;31949;51.404;-0.038;2022-12-07T09:09:18;4.80;99.90
46231;DHT22;31949;51.404;-0.038;2022-12-07T09:11:45;4.80;99.90
46231;DHT22;31949;51.404;-0.038;2022-12-07T09:14:13;4.80;99.90
46231;DHT22;31949;51.404;-0.038;2022-12-07T09:16:40;4.80;99.90
46231;DHT22;31949;51.404;-0.038;2022-12-07T09:19:08;4.80;99.90
46231;DHT22;31949;51.404;-0.038;2022-12-07T09:21:35;4.90;99.90
46231;DHT22;31949;51.404;-0.038;2022-12-07T09:24:02;4.80;99.90
46231;DHT22;31949;51.404;-0.038;2022-12-07T09:26:30;4.80;99.90
46231;DHT22;31949;51.404;-0.038;2022-12-07T09:28:57;4.80;99.90
46231;DHT22;31949;51.404;-0.038;2022-12-07T09:31:25;4.80;99.90
46231;DHT22;31949;51.404;-0.038;2022-12-07T09:33:57;4.80;99.90
46231;DHT22;31949;51.404;-0.038;2022-12-07T09:36:26;4.80;99.90
46231;DHT22;31949;51.404;-0.038;2022-12-07T09:38:54;4.80;99.90
46231;DHT22;31949;51.404;-0.038;2022-12-07T09:41:23;4.70;99.90
46231;DHT22;31949;51.404;-0.038;2022-12-07T09:43:51;4.60;99.90
46231;DHT22;31949;51.404;-0.038;2022-12-07T09:46:20;4.70;99.90
46231;DHT22;31949;51.404;-0.038;2022-12-07T09:48:48;4.60;99.90
46231;DHT22;31949;51.404;-0.038;2022-12-07T09:51:20;4.70;99.90
46231;DHT22;31949;51.404;-0.038;2022-12-07T09:53:53;4.70;99.90
46231;DHT22;31949;51.404;-0.038;2022-12-07T09:56:22;4.70;99.90
46231;DHT22;31949;51.404;-0.038;2022-12-07T09:58:51;4.70;99.90
46231;DHT22;31949;51.404;-0.038;2022-12-07T10:01:22;4.70;99.90
46231;DHT22;31949;51.404;-0.038;2022-12-07T10:03:55;4.80;99.90
46231;DHT22;31949;51.404;-0.038;2022-12-07T10:06:25;4.80;99.90
46231;DHT22;31949;51.404;-0.038;2022-12-07T10:08:52;4.90;99.90
46231;DHT22;31949;51.404;-0.038;2022-12-07T10:11:20;4.90;99.90
46231;DHT22;31949;51.404;-0.038;2022-12-07T10:13:51;4.90;99.90
46231;DHT22;31949;51.404;-0.038;2022-12-07T10:18:52;4.80;99.90
46231;DHT22;31949;51.404;-0.038;2022-12-07T10:21:21;4.80;99.90
46231;DHT22;31949;51.404;-0.038;2022-12-07T10:24:12;4.90;99.90
46231;DHT22;31949;51.404;-0.038;2022-12-07T10:29:37;4.90;99.90
46231;DHT22;31949;51.404;-0.038;2022-12-07T10:34:42;4.90;99.90
46231;DHT22;31949;51.404;-0.038;2022-12-07T10:37:18;5.00;99.90
46231;DHT22;31949;51.404;-0.038;2022-12-07T10:39:55;5.00;99.90
46231;DHT22;31949;51.404;-0.038;2022-12-07T10:42:28;5.00;99.90
46231;DHT22;31949;51.404;-0.038;2022-12-07T10:45:15;5.00;99.90
46231;DHT22;31949;51.404;-0.038;2022-12-07T10:48:05;4.90;99.90
46231;DHT22;31949;51.404;-0.038;2022-12-07T10:51:02;4.90;99.90
46231;DHT22;31949;51.404;-0.038;2022-12-07T10:53:39;4.90;99.90
46231;DHT22;31949;51.404;-0.038;2022-12-07T10:56:53;5.00;99.90
46231;DHT22;31949;51.404;-0.038;2022-12-07T10:59:35;5.10;99.90
46231;DHT22;31949;51.404;-0.038;2022-12-07T11:05:19;5.20;99.90
46231;DHT22;31949;51.404;-0.038;2022-12-07T11:08:05;5.30;99.90
46231;DHT22;31949;51.404;-0.038;2022-12-07T11:11:00;5.20;99.90
46231;DHT22;31949;51.404;-0.038;2022-12-07T11:13:51;5.30;99.90
46231;DHT22;31949;51.404;-0.038;2022-12-07T11:19:24;5.30;99.90
46231;DHT22;31949;51.404;-0.038;2022-12-07T11:22:00;5.30;99.90
46231;DHT22;31949;51.404;-0.038;2022-12-07T11:27:33;5.40;99.90
46231;DHT22;31949;51.404;-0.038;2022-12-07T11:30:10;5.50;99.90
46231;DHT22;31949;51.404;-0.038;2022-12-07T11:32:53;5.50;99.90
46231;DHT22;31949;51.404;-0.038;2022-12-07T11:35:53;5.60;99.90
46231;DHT22;31949;51.404;-0.038;2022-12-07T11:41:05;5.60;99.90
46231;DHT22;31949;51.404;-0.038;2022-12-07T11:46:21;5.80;99.90
46231;DHT22;31949;51.404;-0.038;2022-12-07T11:51:35;6.00;99.90
46231;DHT22;31949;51.404;-0.038;2022-12-07T11:54:22;6.00;99.90
46231;DHT22;31949;51.404;-0.038;2022-12-07T11:56:51;6.00;99.90
46231;DHT22;31949;51.404;-0.038;2022-12-07T11:59:38;6.00;99.90
46231;DHT22;31949;51.404;-0.038;2022-12-07T12:02:21;6.00;99.90
46231;DHT22;31949;51.404;-0.038;2022-12-07T12:04:56;6.10;99.90
46231;DHT22;31949;51.404;-0.038;2022-12-07T12:07:27;6.10;99.90
46231;DHT22;31949;51.404;-0.038;2022-12-07T12:22:07;6.00;99.90
46231;DHT22;31949;51.404;-0.038;2022-12-07T12:24:38;6.10;99.90
46231;DHT22;31949;51.404;-0.038;2022-12-07T12:27:09;6.10;99.90
46231;DHT22;31949;51.404;-0.038;2022-12-07T12:29:43;6.10;99.90
46231;DHT22;31949;51.404;-0.038;2022-12-07T12:32:17;6.10;99.90
46231;DHT22;31949;51.404;-0.038;2022-12-07T12:42:44;6.00;99.90
46231;DHT22;31949;51.404;-0.038;2022-12-07T12:45:23;6.10;99.90
46231;DHT22;31949;51.404;-0.038;2022-12-07T12:47:58;6.10;99.90
46231;DHT22;31949;51.404;-0.038;2022-12-07T12:50:33;6.10;99.90
46231;DHT22;31949;51.404;-0.038;2022-12-07T12:53:13;6.10;99.90
46231;DHT22;31949;51.404;-0.038;2022-12-07T13:03:36;6.20;99.90
46231;DHT22;31949;51.404;-0.038;2022-12-07T13:08:56;6.10;99.90
46231;DHT22;31949;51.404;-0.038;2022-12-07T13:11:39;6.10;99.90
46231;DHT22;31949;51.404;-0.038;2022-12-07T13:20:02;6.20;99.90
46231;DHT22;31949;51.404;-0.038;2022-12-07T13:25:18;6.20;99.90
46231;DHT22;31949;51.404;-0.038;2022-12-07T13:28:02;6.30;99.90
46231;DHT22;31949;51.404;-0.038;2022-12-07T13:30:30;6.30;99.90
46231;DHT22;31949;51.404;-0.038;2022-12-07T13:32:59;6.40;99.90
46231;DHT22;31949;51.404;-0.038;2022-12-07T13:35:34;6.40;99.90
46231;DHT22;31949;51.404;-0.038;2022-12-07T13:38:16;6.30;99.90
46231;DHT22;31949;51.404;-0.038;2022-12-07T13:41:04;6.30;99.90
46231;DHT22;31949;51.404;-0.038;2022-12-07T13:43:41;6.40;99.90
46231;DHT22;31949;51.404;-0.038;2022-12-07T13:46:10;6.40;99.90
46231;DHT22;31949;51.404;-0.038;2022-12-07T13:48:47;6.50;99.90
46231;DHT22;31949;51.404;-0.038;2022-12-07T13:51:21;6.40;99.90
46231;DHT22;31949;51.404;-0.038;2022-12-07T13:53:55;6.40;99.90
46231;DHT22;31949;51.404;-0.038;2022-12-07T13:56:43;6.40;99.90
46231;DHT22;31949;51.404;-0.038;2022-12-07T13:59:18;6.40;99.90
46231;DHT22;31949;51.404;-0.038;2022-12-07T14:01:48;6.40;99.90
46231;DHT22;31949;51.404;-0.038;2022-12-07T14:04:36;6.40;99.90
46231;DHT22;31949;51.404;-0.038;2022-12-07T14:07:27;6.40;99.90
46231;DHT22;31949;51.404;-0.038;2022-12-07T14:10:04;6.40;99.90
46231;DHT22;31949;51.404;-0.038;2022-12-07T14:12:34;6.50;99.90
46231;DHT22;31949;51.404;-0.038;2022-12-07T14:15:03;6.50;99.90
46231;DHT22;31949;51.404;-0.038;2022-12-07T14:17:31;6.50;99.90
46231;DHT22;31949;51.404;-0.038;2022-12-07T14:20:00;6.60;99.90
46231;DHT22;31949;51.404;-0.038;2022-12-07T14:22:36;6.50;99.90
46231;DHT22;31949;51.404;-0.038;2022-12-07T14:28:09;6.60;99.90
46231;DHT22;31949;51.404;-0.038;2022-12-07T14:30:37;6.60;99.90
46231;DHT22;31949;51.404;-0.038;2022-12-07T14:33:05;6.70;99.90
46231;DHT22;31949;51.404;-0.038;2022-12-07T14:35:32;6.80;99.90
46231;DHT22;31949;51.404;-0.038;2022-12-07T14:38:00;6.80;99.90
46231;DHT22;31949;51.404;-0.038;2022-12-07T14:40:28;6.90;99.90
46231;DHT22;31949;51.404;-0.038;2022-12-07T14:43:08;6.90;99.90
46231;DHT22;31949;51.404;-0.038;2022-12-07T14:45:35;6.90;99.90
46231;DHT22;31949;51.404;-0.038;2022-12-07T14:48:03;6.80;99.90
46231;DHT22;31949;51.404;-0.038;2022-12-07T14:50:52;6.70;99.90
46231;DHT22;31949;51.404;-0.038;2022-12-07T14:53:48;6.60;99.90
46231;DHT22;31949;51.404;-0.038;2022-12-07T14:56:24;6.50;99.90
46231;DHT22;31949;51.404;-0.038;2022-12-07T14:58:51;6.30;99.90
46231;DHT22;31949;51.404;-0.038;2022-12-07T15:01:19;6.30;99.90
46231;DHT22;31949;51.404;-0.038;2022-12-07T15:03:46;6.20;99.90
46231;DHT22;31949;51.404;-0.038;2022-12-07T15:06:17;6.20;99.90
46231;DHT22;31949;51.404;-0.038;2022-12-07T15:08:44;6.20;99.90
46231;DHT22;31949;51.404;-0.038;2022-12-07T15:11:16;6.10;99.90
46231;DHT22;31949;51.404;-0.038;2022-12-07T15:13:44;6.00;99.90
46231;DHT22;31949;51.404;-0.038;2022-12-07T15:16:30;6.00;99.90
46231;DHT22;31949;51.404;-0.038;2022-12-07T15:19:23;5.90;99.90
46231;DHT22;31949;51.404;-0.038;2022-12-07T15:21:55;5.90;99.90
46231;DHT22;31949;51.404;-0.038;2022-12-07T15:24:22;5.80;99.90
46231;DHT22;31949;51.404;-0.038;2022-12-07T15:26:51;5.80;99.90
46231;DHT22;31949;51.404;-0.038;2022-12-07T15:29:19;5.70;99.90
46231;DHT22;31949;51.404;-0.038;2022-12-07T15:31:52;5.70;99.90
46231;DHT22;31949;51.404;-0.038;2022-12-07T15:34:27;5.60;99.90
46231;DHT22;31949;51.404;-0.038;2022-12-07T15:37:05;5.60;99.90
46231;DHT22;31949;51.404;-0.038;2022-12-07T15:39:33;5.60;99.90
46231;DHT22;31949;51.404;-0.038;2022-12-07T15:42:00;5.60;99.90
46231;DHT22;31949;51.404;-0.038;2022-12-07T15:44:28;5.50;99.90
46231;DHT22;31949;51.404;-0.038;2022-12-07T15:47:14;5.50;99.90
46231;DHT22;31949;51.404;-0.038;2022-12-07T15:49:41;5.50;99.90
46231;DHT22;31949;51.404;-0.038;2022-12-07T15:52:08;5.50;99.90
46231;DHT22;31949;51.404;-0.038;2022-12-07T15:54:36;5.50;99.90
46231;DHT22;31949;51.404;-0.038;2022-12-07T15:57:03;5.50;99.90
46231;DHT22;31949;51.404;-0.038;2022-12-07T15:59:31;5.40;99.90
46231;DHT22;31949;51.404;-0.038;2022-12-07T16:01:58;5.40;99.90
46231;DHT22;31949;51.404;-0.038;2022-12-07T16:04:27;5.40;99.90
46231;DHT22;31949;51.404;-0.038;2022-12-07T16:06:56;5.30;99.90
46231;DHT22;31949;51.404;-0.038;2022-12-07T16:09:23;5.30;99.90
46231;DHT22;31949;51.404;-0.038;2022-12-07T16:11:51;5.30;99.90
46231;DHT22;31949;51.404;-0.038;2022-12-07T16:14:19;5.30;99.90
46231;DHT22;31949;51.404;-0.038;2022-12-07T16:16:47;5.30;99.90
46231;DHT22;31949;51.404;-0.038;2022-12-07T16:19:15;5.20;99.90
46231;DHT22;31949;51.404;-0.038;2022-12-07T16:21:42;5.20;99.90
46231;DHT22;31949;51.404;-0.038;2022-12-07T16:24:09;5.10;99.90
46231;DHT22;31949;51.404;-0.038;2022-12-07T16:26:42;5.10;99.90
46231;DHT22;31949;51.404;-0.038;2022-12-07T16:29:17;5.10;99.90
46231;DHT22;31949;51.404;-0.038;2022-12-07T16:31:45;5.10;99.90
46231;DHT22;31949;51.404;-0.038;2022-12-07T16:34:12;5.10;99.90
46231;DHT22;31949;51.404;-0.038;2022-12-07T16:36:40;5.20;99.90
46231;DHT22;31949;51.404;-0.038;2022-12-07T16:39:27;5.20;99.90
46231;DHT22;31949;51.404;-0.038;2022-12-07T16:41:54;5.10;99.90
46231;DHT22;31949;51.404;-0.038;2022-12-07T16:44:21;5.10;99.90
46231;DHT22;31949;51.404;-0.038;2022-12-07T16:46:48;5.10;99.90
46231;DHT22;31949;51.404;-0.038;2022-12-07T16:49:16;5.10;99.90
46231;DHT22;31949;51.404;-0.038;2022-12-07T16:51:44;5.00;99.90
46231;DHT22;31949;51.404;-0.038;2022-12-07T16:54:12;5.00;99.90
46231;DHT22;31949;51.404;-0.038;2022-12-07T16:56:39;5.00;99.90
46231;DHT22;31949;51.404;-0.038;2022-12-07T16:59:07;4.90;99.90
46231;DHT22;31949;51.404;-0.038;2022-12-07T17:01:34;4.90;99.90
46231;DHT22;31949;51.404;-0.038;2022-12-07T17:04:03;4.90;99.90
46231;DHT22;31949;51.404;-0.038;2022-12-07T17:06:31;4.90;99.90
46231;DHT22;31949;51.404;-0.038;2022-12-07T17:08:59;4.80;99.90
46231;DHT22;31949;51.404;-0.038;2022-12-07T17:11:28;4.80;99.90
46231;DHT22;31949;51.404;-0.038;2022-12-07T17:13:55;4.80;99.90
46231;DHT22;31949;51.404;-0.038;2022-12-07T17:16:41;4.80;99.90
46231;DHT22;31949;51.404;-0.038;2022-12-07T17:19:11;4.70;99.90
46231;DHT22;31949;51.404;-0.038;2022-12-07T17:21:39;4.70;99.90
46231;DHT22;31949;51.404;-0.038;2022-12-07T17:24:08;4.70;99.90
46231;DHT22;31949;51.404;-0.038;2022-12-07T17:26:36;4.60;99.90
46231;DHT22;31949;51.404;-0.038;2022-12-07T17:29:05;4.60;99.90
46231;DHT22;31949;51.404;-0.038;2022-12-07T17:31:33;4.60;99.90
46231;DHT22;31949;51.404;-0.038;2022-12-07T17:34:01;4.70;99.90
46231;DHT22;31949;51.404;-0.038;2022-12-07T17:36:30;4.60;99.90